Time;durP1;ratioP1;P1;durP2;ratioP2;P2;SDS_P1;SDS_P2;PMS_P1;PMS_P2;Temp;Humidity;BMP_temperature;BMP_pressure;BME280_temperature;BME280_humidity;BME280_pressure;Samples;Min_cycle;Max_cycle;Signal;HPM_P1;HPM_P2
2023/10/24 00:01:58;;;;;;;15.32;6.70;;;;;;;9.54;100.00;92462.63;6282379;22;20114;-82
2023/10/24 00:04:25;;;;;;;18.73;6.60;;;;;;;9.59;100.00;92467.78;6282748;22;20019;-80
2023/10/24 00:06:50;;;;;;;11.80;6.78;;;;;;;9.56;100.00;92466.50;6283031;22;19995;-82
2023/10/24 00:09:16;;;;;;;10.82;6.80;;;;;;;9.56;100.00;92476.19;6309749;22;20022;-81
2023/10/24 00:11:42;;;;;;;16.83;7.82;;;;;;;9.56;100.00;92471.75;6281379;22;20011;-81
2023/10/24 00:14:07;;;;;;;11.18;7.53;;;;;;;9.56;100.00;92463.13;6282071;22;20343;-81
2023/10/24 00:16:33;;;;;;;16.58;7.53;;;;;;;9.56;100.00;92456.06;6282391;22;20008;-81
2023/10/24 00:18:59;;;;;;;19.38;7.93;;;;;;;9.56;100.00;92460.50;6309532;22;20019;-81
2023/10/24 00:21:24;;;;;;;14.15;7.55;;;;;;;9.58;100.00;92466.25;6282605;22;20015;-81
2023/10/24 00:23:50;;;;;;;12.45;7.80;;;;;;;9.56;100.00;92455.28;6282748;22;20322;-81
2023/10/24 00:26:15;;;;;;;16.50;7.88;;;;;;;9.57;100.00;92446.41;6309840;22;19996;-81
2023/10/24 00:28:45;;;;;;;16.00;8.75;;;;;;;9.58;100.00;92442.72;6282293;22;20075;-81
2023/10/24 00:31:12;;;;;;;16.67;8.48;;;;;;;9.58;100.00;92432.25;6310205;22;20011;-81
2023/10/24 00:33:38;;;;;;;21.27;8.70;;;;;;;9.58;100.00;92434.88;6282320;22;20015;-81
2023/10/24 00:36:04;;;;;;;14.00;8.05;;;;;;;9.58;100.00;92427.03;6308719;22;20053;-81
2023/10/24 00:38:30;;;;;;;14.15;8.40;;;;;;;9.60;100.00;92438.00;6282953;22;20035;-81
2023/10/24 00:40:55;;;;;;;14.10;7.45;;;;;;;9.62;100.00;92430.66;6283289;22;20015;-81
2023/10/24 00:43:21;;;;;;;13.82;7.30;;;;;;;9.57;100.00;92425.50;6310092;22;20007;-81
2023/10/24 00:45:47;;;;;;;11.20;5.65;;;;;;;9.59;100.00;92432.00;6311162;22;20011;-81
2023/10/24 00:48:13;;;;;;;12.52;6.75;;;;;;;9.57;100.00;92426.28;6257588;22;20057;-82
2023/10/24 00:50:38;;;;;;;11.82;6.43;;;;;;;9.55;100.00;92417.94;6309334;22;20602;-82
2023/10/24 00:53:04;;;;;;;12.38;6.88;;;;;;;9.56;100.00;92424.69;6309775;22;20010;-81
2023/10/24 00:55:30;;;;;;;13.63;7.35;;;;;;;9.57;100.00;92425.50;6309965;22;20019;-81
2023/10/24 00:57:58;;;;;;;13.63;6.80;;;;;;;9.51;100.00;92398.63;6309795;22;20066;-81
2023/10/24 01:00:26;;;;;;;13.40;6.28;;;;;;;9.52;100.00;92391.56;6283189;22;20003;-81
2023/10/24 01:02:52;;;;;;;15.15;6.70;;;;;;;9.52;100.00;92391.56;6310013;22;20010;-81
2023/10/24 01:05:17;;;;;;;15.95;6.45;;;;;;;9.47;100.00;92375.97;6309556;22;20011;-81
2023/10/24 01:07:45;;;;;;;15.43;5.90;;;;;;;9.50;100.00;92370.97;6283340;22;20023;-81
2023/10/24 01:10:11;;;;;;;11.13;6.20;;;;;;;9.48;100.00;92377.50;6283075;22;20008;-80
2023/10/24 01:12:38;;;;;;;15.02;6.03;;;;;;;9.50;100.00;92381.41;6284245;22;20070;-81
2023/10/24 01:15:05;;;;;;;13.02;5.82;;;;;;;9.49;100.00;92382.47;6256637;22;20015;-81
2023/10/24 01:17:31;;;;;;;13.82;6.30;;;;;;;9.49;100.00;92384.31;6282958;22;20025;-81
2023/10/24 01:19:57;;;;;;;10.02;6.43;;;;;;;9.43;100.00;92378.34;6309612;22;20154;-81
2023/10/24 01:22:23;;;;;;;11.65;6.18;;;;;;;9.46;100.00;92380.41;6282286;22;20107;-81
2023/10/24 01:24:50;;;;;;;12.27;6.47;;;;;;;9.46;100.00;92363.97;6282017;22;20409;-81
2023/10/24 01:27:19;;;;;;;10.13;5.70;;;;;;;9.46;100.00;92350.91;6308881;22;20034;-81
2023/10/24 01:29:44;;;;;;;9.95;5.47;;;;;;;9.42;100.00;92336.84;6282560;22;20341;-80
2023/10/24 01:32:10;;;;;;;8.63;4.95;;;;;;;9.46;100.00;92340.47;6282702;22;20042;-81
2023/10/24 01:34:36;;;;;;;10.00;4.90;;;;;;;9.45;100.00;92341.50;6282168;22;20444;-81
2023/10/24 01:37:04;;;;;;;15.18;6.28;;;;;;;9.44;100.00;92343.34;6309685;22;20007;-81
2023/10/24 01:39:30;;;;;;;9.38;5.10;;;;;;;9.43;100.00;92333.94;6281586;22;20103;-81
2023/10/24 01:41:56;;;;;;;9.68;5.07;;;;;;;9.41;100.00;92341.28;6281502;22;20015;-81
2023/10/24 01:44:24;;;;;;;8.88;4.80;;;;;;;9.41;100.00;92343.88;6275610;22;20015;-81
2023/10/24 01:46:49;;;;;;;9.13;4.93;;;;;;;9.42;100.00;92339.47;6278042;22;20015;-81
2023/10/24 01:49:15;;;;;;;9.73;5.25;;;;;;;9.41;100.00;92343.13;6276527;22;20445;-81
2023/10/24 01:51:41;;;;;;;9.20;5.13;;;;;;;9.42;100.00;92365.59;6276487;22;20006;-82
2023/10/24 01:54:06;;;;;;;10.55;5.03;;;;;;;9.41;100.00;92359.56;6275996;22;20011;-81
2023/10/24 01:56:32;;;;;;;10.25;5.13;;;;;;;9.40;100.00;92347.56;6276497;22;20417;-80
2023/10/24 01:58:58;;;;;;;10.85;5.05;;;;;;;9.38;100.00;92308.66;6276588;22;20034;-81
2023/10/24 02:01:23;;;;;;;12.35;4.93;;;;;;;9.36;100.00;92310.78;6277179;22;20434;-81
2023/10/24 02:03:49;;;;;;;12.15;4.78;;;;;;;9.36;100.00;92300.31;6277240;22;20472;-81
2023/10/24 02:06:15;;;;;;;9.20;4.10;;;;;;;9.35;100.00;92303.25;6280240;22;20008;-80
2023/10/24 02:08:41;;;;;;;10.75;4.40;;;;;;;9.33;100.00;92300.91;6277935;22;20016;-81
2023/10/24 02:11:06;;;;;;;7.72;4.20;;;;;;;9.35;100.00;92298.78;6280437;22;20207;-80
2023/10/24 02:13:32;;;;;;;9.65;4.60;;;;;;;9.34;100.00;92296.44;6252634;22;20067;-81
2023/10/24 02:15:58;;;;;;;8.70;3.97;;;;;;;9.32;100.00;92299.34;6278221;22;20012;-80
2023/10/24 02:18:24;;;;;;;7.97;4.05;;;;;;;9.32;100.00;92303.78;6280432;22;20009;-80
2023/10/24 02:20:49;;;;;;;6.78;3.97;;;;;;;9.28;100.00;92298.38;6279442;22;20071;-81
2023/10/24 02:23:15;;;;;;;7.78;4.13;;;;;;;9.25;100.00;92275.41;6278311;22;20067;-80
2023/10/24 02:25:42;;;;;;;8.13;3.70;;;;;;;9.28;100.00;92282.69;6278315;22;20441;-81
2023/10/24 02:28:08;;;;;;;5.85;4.03;;;;;;;9.27;100.00;92275.91;6253735;22;20397;-80
2023/10/24 02:30:39;;;;;;;9.45;4.00;;;;;;;9.28;100.00;92281.91;6280556;22;20339;-81
2023/10/24 02:33:04;;;;;;;6.75;3.75;;;;;;;9.27;100.00;92267.28;6278996;22;20504;-81
2023/10/24 02:35:30;;;;;;;6.88;4.35;;;;;;;9.28;100.00;92264.41;6278049;22;20014;-81
2023/10/24 02:37:56;;;;;;;6.45;4.13;;;;;;;9.29;100.00;92263.34;6280789;22;20069;-81
2023/10/24 02:40:21;;;;;;;11.85;4.45;;;;;;;9.27;100.00;92259.47;6254284;22;20362;-81
2023/10/24 02:42:47;;;;;;;9.30;4.38;;;;;;;9.25;100.00;92251.13;6254130;22;20012;-81
2023/10/24 02:45:13;;;;;;;9.05;4.80;;;;;;;9.26;100.00;92243.00;6278252;22;20018;-81
2023/10/24 02:47:39;;;;;;;11.13;4.93;;;;;;;9.27;100.00;92249.00;6278725;22;20020;-81
2023/10/24 02:50:06;;;;;;;10.27;5.07;;;;;;;9.27;100.00;92249.78;6280400;22;20011;-81
2023/10/24 02:52:32;;;;;;;10.75;4.78;;;;;;;9.28;100.00;92240.91;6281168;22;20016;-79
2023/10/24 02:54:57;;;;;;;13.80;5.13;;;;;;;9.29;100.00;92239.06;6278344;22;20006;-79
2023/10/24 02:57:23;;;;;;;10.20;5.82;;;;;;;9.27;100.00;92241.94;6279016;22;20022;-79
2023/10/24 02:59:49;;;;;;;8.68;5.65;;;;;;;9.25;100.00;92228.38;6253755;22;20022;-79
2023/10/24 03:02:15;;;;;;;10.85;5.93;;;;;;;9.28;100.00;92230.44;6252658;22;20053;-80
2023/10/24 03:04:40;;;;;;;10.70;5.60;;;;;;;9.37;100.00;92228.75;6278437;22;20011;-79
2023/10/24 03:07:06;;;;;;;1219.68;28.02;;;;;;;9.31;100.00;92245.53;6278260;22;20016;-81
2023/10/24 03:09:33;;;;;;;1179.63;25.23;;;;;;;9.18;100.00;92236.56;6277398;22;20043;-81
2023/10/24 03:11:58;;;;;;;376.98;9.63;;;;;;;9.16;100.00;92236.09;6253236;22;20014;-80
2023/10/24 03:14:24;;;;;;;437.17;10.45;;;;;;;9.13;100.00;92225.44;6279385;22;20016;-80
2023/10/24 03:16:49;;;;;;;14.35;3.20;;;;;;;9.13;100.00;92215.00;6280649;22;20027;-81
2023/10/24 03:19:15;;;;;;;8.10;4.20;;;;;;;9.09;100.00;92190.50;6280469;22;20007;-80
2023/10/24 03:21:41;;;;;;;8.52;5.20;;;;;;;9.12;100.00;92190.72;6281884;22;20012;-80
2023/10/24 03:24:08;;;;;;;9.05;5.80;;;;;;;9.14;100.00;92190.41;6255603;22;20020;-80
2023/10/24 03:26:34;;;;;;;13.23;6.22;;;;;;;9.15;100.00;92189.38;6280000;22;20004;-80
2023/10/24 03:28:59;;;;;;;12.85;6.70;;;;;;;9.15;100.00;92179.69;6281461;22;20087;-81
2023/10/24 03:31:26;;;;;;;10.27;6.55;;;;;;;9.16;100.00;92175.25;6279755;22;20110;-80
2023/10/24 03:33:52;;;;;;;13.20;6.72;;;;;;;9.16;100.00;92177.84;6282602;22;20100;-80
2023/10/24 03:36:17;;;;;;;10.57;6.45;;;;;;;9.18;100.00;92167.91;6278855;22;20121;-80
2023/10/24 03:38:43;;;;;;;9.40;5.85;;;;;;;9.18;100.00;92170.53;6279743;22;20015;-79
2023/10/24 03:41:08;;;;;;;10.75;6.40;;;;;;;9.21;100.00;92171.78;6279464;22;20004;-80
2023/10/24 03:43:35;;;;;;;14.55;6.18;;;;;;;9.19;100.00;92164.25;6281489;22;20022;-80
2023/10/24 03:46:06;;;;;;;11.20;6.00;;;;;;;9.16;100.00;92146.53;6312237;22;20025;-80
2023/10/24 03:48:47;;;;;;;10.52;6.22;;;;;;;9.19;100.00;92145.97;6200958;22;20337;-79
2023/10/24 03:51:13;;;;;;;9.60;5.40;;;;;;;9.18;100.00;92142.56;6311862;22;20015;-79
2023/10/24 03:53:38;;;;;;;8.57;5.45;;;;;;;9.20;100.00;92133.69;6312560;22;20452;-79
2023/10/24 03:56:04;;;;;;;13.00;6.10;;;;;;;9.20;100.00;92129.22;6310810;22;20039;-80
2023/10/24 03:58:30;;;;;;;10.13;5.70;;;;;;;9.18;100.00;92145.16;6312582;22;20007;-79
2023/10/24 04:01:04;;;;;;;9.85;5.38;;;;;;;9.16;100.00;92123.81;6259819;22;20360;-80
2023/10/24 04:03:29;;;;;;;11.45;5.25;;;;;;;9.17;100.00;92104.47;6312197;22;20095;-80
2023/10/24 04:05:55;;;;;;;9.25;4.75;;;;;;;9.18;100.00;92102.63;6313558;22;19999;-79
2023/10/24 04:08:21;;;;;;;7.20;4.53;;;;;;;9.14;100.00;92096.41;6285424;22;20034;-80
2023/10/24 04:10:46;;;;;;;7.43;4.35;;;;;;;9.15;100.00;92090.16;6260918;22;20337;-80
2023/10/24 04:13:12;;;;;;;10.13;4.75;;;;;;;9.16;100.00;92086.47;6285359;22;20068;-79
2023/10/24 04:15:37;;;;;;;8.30;4.40;;;;;;;9.17;100.00;92085.41;6312065;22;19999;-80
2023/10/24 04:18:03;;;;;;;8.70;4.95;;;;;;;9.16;100.00;92081.25;6312315;22;20026;-81
2023/10/24 04:20:30;;;;;;;7.47;4.30;;;;;;;9.21;100.00;92086.41;6284326;22;20356;-79
2023/10/24 04:23:01;;;;;;;208.02;7.45;;;;;;;9.24;100.00;92077.97;6311482;22;20016;-79
2023/10/24 04:25:28;;;;;;;21.58;4.50;;;;;;;9.20;100.00;92065.78;6310555;22;20007;-80
2023/10/24 04:27:54;;;;;;;21.65;5.05;;;;;;;9.17;100.00;92080.19;6309253;22;20082;-79
2023/10/24 04:30:19;;;;;;;7.05;4.25;;;;;;;9.21;100.00;92081.19;6283627;22;20011;-79
2023/10/24 04:32:45;;;;;;;6.95;4.55;;;;;;;9.22;100.00;92079.34;6285815;22;20071;-80
2023/10/24 04:35:13;;;;;;;6.20;4.15;;;;;;;9.21;100.00;92075.16;6283110;22;20322;-79
2023/10/24 04:37:39;;;;;;;6.93;3.92;;;;;;;9.19;100.00;92072.84;6260203;22;20004;-80
2023/10/24 04:40:06;;;;;;;6.05;3.65;;;;;;;9.14;100.00;92044.19;6259830;22;20019;-81
2023/10/24 04:42:32;;;;;;;5.03;2.72;;;;;;;9.16;100.00;92049.91;6309978;22;20425;-81
2023/10/24 04:44:58;;;;;;;6.72;2.90;;;;;;;9.16;100.00;92057.72;6278540;22;20027;-80
2023/10/24 04:47:25;;;;;;;4.00;2.20;;;;;;;9.16;100.00;92023.78;6307933;22;20472;-81
2023/10/24 04:49:50;;;;;;;3.85;2.22;;;;;;;9.16;100.00;92018.56;6257730;22;20030;-82
2023/10/24 04:52:16;;;;;;;3.95;2.03;;;;;;;9.36;100.00;92031.25;6280434;22;20003;-81
2023/10/24 04:54:42;;;;;;;426.98;10.32;;;;;;;9.35;100.00;92034.94;6306264;22;20084;-82
2023/10/24 04:57:08;;;;;;;578.97;13.13;;;;;;;9.24;100.00;92035.41;6307683;22;20318;-82
2023/10/24 04:59:34;;;;;;;915.88;19.85;;;;;;;9.15;100.00;92038.69;6256622;22;20067;-81
2023/10/24 05:01:59;;;;;;;541.13;13.30;;;;;;;9.13;100.00;92032.22;6308596;22;20328;-82
2023/10/24 05:04:25;;;;;;;318.08;8.20;;;;;;;9.08;100.00;92029.69;6277406;22;20075;-81
2023/10/24 05:06:51;;;;;;;614.97;14.80;;;;;;;9.02;100.00;92012.56;6305757;22;20054;-82
2023/10/24 05:09:17;;;;;;;651.22;14.20;;;;;;;9.00;100.00;92009.44;6278515;22;20021;-83
2023/10/24 05:11:43;;;;;;;319.88;8.75;;;;;;;9.02;100.00;92004.72;6307377;22;20078;-83
2023/10/24 05:14:08;;;;;;;447.50;9.80;;;;;;;9.02;100.00;91992.44;6280389;22;20030;-81
2023/10/24 05:16:38;;;;;;;77.35;3.58;;;;;;;9.30;100.00;92008.94;6281525;22;20029;-81
2023/10/24 05:19:03;;;;;;;292.90;6.35;;;;;;;9.15;100.00;92037.91;6308232;22;20018;-82
2023/10/24 05:21:30;;;;;;;41.17;2.53;;;;;;;9.10;100.00;92036.16;6308690;22;19999;-82
2023/10/24 05:23:56;;;;;;;4.55;1.70;;;;;;;9.05;100.00;92017.19;6281730;22;20011;-81
2023/10/24 05:26:23;;;;;;;2.47;1.58;;;;;;;9.03;100.00;92003.66;6256254;22;20394;-82
2023/10/24 05:28:49;;;;;;;1.15;1.05;;;;;;;9.00;100.00;92004.22;6310134;22;20068;-80
2023/10/24 05:31:15;;;;;;;4.22;1.23;;;;;;;8.99;100.00;91994.88;6309495;22;20011;-81
2023/10/24 05:33:41;;;;;;;1.35;1.10;;;;;;;9.00;100.00;91988.56;6281141;22;20034;-80
2023/10/24 05:36:09;;;;;;;11.82;1.80;;;;;;;9.00;100.00;91993.78;6307807;22;20061;-81
2023/10/24 05:38:34;;;;;;;160.77;4.75;;;;;;;9.06;100.00;91993.41;6281107;22;20432;-81
2023/10/24 05:41:01;;;;;;;338.05;7.57;;;;;;;9.00;100.00;91978.91;6308473;22;20002;-81
2023/10/24 05:43:27;;;;;;;89.00;3.67;;;;;;;8.99;100.00;91992.25;6307985;22;20071;-81
2023/10/24 05:45:52;;;;;;;358.05;8.23;;;;;;;8.99;100.00;92002.69;6275019;22;20020;-81
2023/10/24 05:48:18;;;;;;;242.75;6.70;;;;;;;9.09;100.00;92012.94;6275757;22;20019;-81
2023/10/24 05:50:44;;;;;;;44.53;3.30;;;;;;;9.01;100.00;92005.81;6278247;22;20003;-79
2023/10/24 05:53:10;;;;;;;70.53;3.75;;;;;;;8.94;100.00;91975.63;6278303;22;20345;-78
2023/10/24 05:55:35;;;;;;;596.58;14.85;;;;;;;8.94;100.00;91975.63;6277443;22;20027;-81
2023/10/24 05:58:01;;;;;;;82.38;4.28;;;;;;;8.99;100.00;91971.38;6275286;22;20019;-79
2023/10/24 06:00:27;;;;;;;9.20;2.97;;;;;;;8.95;100.00;91964.09;6276784;22;20007;-80
2023/10/24 06:02:53;;;;;;;3.50;2.20;;;;;;;8.92;100.00;91959.47;6276512;22;20403;-79
2023/10/24 06:05:19;;;;;;;3.50;1.95;;;;;;;8.93;100.00;91966.22;6277079;22;20451;-80
2023/10/24 06:07:45;;;;;;;3.60;2.30;;;;;;;9.03;100.00;91978.34;6277833;22;20083;-81
2023/10/24 06:10:10;;;;;;;4.20;2.42;;;;;;;9.01;100.00;92000.56;6281062;22;20080;-81
2023/10/24 06:12:38;;;;;;;3.30;2.00;;;;;;;9.02;100.00;91991.66;6280549;22;20015;-80
2023/10/24 06:15:08;;;;;;;7.20;1.45;;;;;;;9.01;100.00;91979.69;6281390;22;20056;-80
2023/10/24 06:17:38;;;;;;;1.70;1.20;;;;;;;8.99;100.00;91966.16;6281467;22;20031;-79
2023/10/24 06:20:04;;;;;;;1.65;1.13;;;;;;;8.99;100.00;91940.03;6281990;22;20011;-80
2023/10/24 06:22:30;;;;;;;1.40;1.10;;;;;;;9.00;100.00;91937.13;6281020;22;20004;-80
2023/10/24 06:24:57;;;;;;;1.38;1.05;;;;;;;9.08;100.00;91956.59;6281386;22;20018;-80
2023/10/24 06:27:24;;;;;;;1.45;1.10;;;;;;;9.18;100.00;91959.75;6281490;22;19995;-80
2023/10/24 06:29:49;;;;;;;1.90;1.10;;;;;;;9.13;100.00;91964.31;6281246;22;20518;-80
2023/10/24 06:32:16;;;;;;;1.10;0.90;;;;;;;9.11;100.00;91958.59;6281338;22;19999;-80
2023/10/24 06:34:41;;;;;;;1.35;1.10;;;;;;;9.09;100.00;91961.50;6279965;22;20095;-80
2023/10/24 06:37:08;;;;;;;2.25;1.25;;;;;;;9.09;100.00;91969.31;6278809;22;20007;-80
2023/10/24 06:39:34;;;;;;;2.03;1.17;;;;;;;9.10;100.00;91957.84;6279761;22;20657;-80
2023/10/24 06:42:03;;;;;;;2.88;1.25;;;;;;;9.10;100.00;91967.50;6280479;22;20004;-81
2023/10/24 06:44:30;;;;;;;3.50;1.40;;;;;;;9.09;100.00;91965.94;6255855;22;20118;-80
2023/10/24 06:46:56;;;;;;;2.80;1.20;;;;;;;9.10;100.00;91959.69;6283175;22;20007;-81
2023/10/24 06:49:22;;;;;;;6.00;1.30;;;;;;;9.10;100.00;91944.78;6281142;22;20022;-77
2023/10/24 06:51:47;;;;;;;2.30;1.33;;;;;;;9.10;100.00;91947.41;6280612;22;20003;-81
2023/10/24 06:54:13;;;;;;;2.20;1.40;;;;;;;9.11;100.00;91958.59;6278240;22;20022;-79
2023/10/24 06:56:39;;;;;;;3.10;1.40;;;;;;;9.10;100.00;91963.06;6280613;22;20027;-79
2023/10/24 06:59:04;;;;;;;1.77;1.20;;;;;;;9.11;100.00;91975.03;6255826;22;20019;-80
2023/10/24 07:01:30;;;;;;;1.95;1.20;;;;;;;9.11;100.00;91963.84;6283028;22;20031;-79
2023/10/24 07:03:56;;;;;;;2.00;1.20;;;;;;;9.10;100.00;91950.00;6280746;22;20089;-79
2023/10/24 07:06:21;;;;;;;1.67;1.10;;;;;;;9.15;100.00;91946.53;6279143;22;19996;-79
2023/10/24 07:08:48;;;;;;;32.10;2.78;;;;;;;9.43;100.00;91952.50;6279558;22;20427;-80
2023/10/24 07:11:14;;;;;;;202.23;4.55;;;;;;;9.28;100.00;91947.59;6280709;22;20019;-79
2023/10/24 07:13:40;;;;;;;198.80;4.25;;;;;;;9.18;100.00;91943.31;6281788;22;20087;-79
2023/10/24 07:16:13;;;;;;;67.80;2.85;;;;;;;9.16;100.00;91950.66;6279730;22;20042;-80
2023/10/24 07:18:39;;;;;;;115.95;3.97;;;;;;;8.98;100.00;91930.66;6281645;22;20015;-79
2023/10/24 07:21:04;;;;;;;5.07;2.58;;;;;;;9.15;100.00;91946.53;6280957;22;20003;-79
2023/10/24 07:23:30;;;;;;;4.22;2.28;;;;;;;9.16;100.00;91953.28;6252763;22;20046;-80
2023/10/24 07:25:56;;;;;;;3.17;1.90;;;;;;;9.17;100.00;91941.78;6279136;22;20003;-80
2023/10/24 07:28:22;;;;;;;2.13;1.27;;;;;;;9.16;100.00;91941.03;6280493;22;20365;-80
2023/10/24 07:30:51;;;;;;;2.60;1.60;;;;;;;9.19;100.00;91955.34;6279621;22;20340;-79
2023/10/24 07:33:18;;;;;;;2.08;1.50;;;;;;;9.19;100.00;91950.09;6280964;22;20020;-79
2023/10/24 07:35:46;;;;;;;2.45;1.63;;;;;;;9.20;100.00;91932.59;6282035;22;20022;-79
2023/10/24 07:38:14;;;;;;;3.47;1.40;;;;;;;9.23;100.00;91943.25;6283052;22;20063;-79
2023/10/24 07:40:39;;;;;;;2.90;1.60;;;;;;;9.23;100.00;91932.00;6280743;22;20323;-80
2023/10/24 07:43:05;;;;;;;2.63;1.33;;;;;;;9.24;100.00;91934.34;6279392;22;20018;-79
2023/10/24 07:45:32;;;;;;;3.40;1.30;;;;;;;9.22;100.00;91926.00;6253894;22;20043;-79
2023/10/24 07:47:59;;;;;;;1.65;1.20;;;;;;;9.27;100.00;91912.84;6280555;22;20012;-80
2023/10/24 07:50:28;;;;;;;1.70;1.10;;;;;;;9.47;100.00;91918.75;6255010;22;20003;-79
2023/10/24 07:52:53;;;;;;;1.75;1.20;;;;;;;9.38;100.00;91911.59;6280511;22;20011;-79
2023/10/24 07:55:19;;;;;;;4.53;1.23;;;;;;;9.36;100.00;91908.50;6281977;22;20054;-79
2023/10/24 07:57:45;;;;;;;1.95;1.30;;;;;;;9.38;100.00;91905.59;6281494;22;20015;-80
2023/10/24 08:00:11;;;;;;;5.05;1.17;;;;;;;9.41;100.00;91923.28;6281275;22;20057;-77
2023/10/24 08:02:39;;;;;;;1.30;1.20;;;;;;;9.41;100.00;91914.69;6281851;22;20011;-79
2023/10/24 08:05:07;;;;;;;3.25;1.20;;;;;;;9.42;100.00;91913.63;6282572;22;20430;-80
2023/10/24 08:07:32;;;;;;;3.75;1.00;;;;;;;9.43;100.00;91912.56;6281461;22;20068;-80
2023/10/24 08:09:58;;;;;;;3.53;1.30;;;;;;;9.43;100.00;91917.78;6255201;22;20008;-79
2023/10/24 08:12:23;;;;;;;3.03;1.00;;;;;;;9.50;100.00;91918.16;6281510;22;20666;-80
2023/10/24 08:14:49;;;;;;;1.15;0.90;;;;;;;9.53;100.00;91917.59;6283121;22;20016;-80
2023/10/24 08:17:15;;;;;;;1.23;1.10;;;;;;;9.55;100.00;91910.22;6282434;22;20322;-80
2023/10/24 08:19:40;;;;;;;1.67;0.80;;;;;;;9.56;100.00;91902.06;6283606;22;20051;-80
2023/10/24 08:22:06;;;;;;;0.75;0.68;;;;;;;9.58;100.00;91899.19;6282556;22;20012;-79
2023/10/24 08:24:32;;;;;;;1.17;0.95;;;;;;;9.61;100.00;91906.41;6281110;22;20031;-79
2023/10/24 08:26:57;;;;;;;2.28;1.08;;;;;;;9.64;100.00;91913.69;6279725;22;20034;-79
2023/10/24 08:29:23;;;;;;;1.48;0.98;;;;;;;9.65;100.00;91904.78;6280758;22;20014;-79
2023/10/24 08:31:48;;;;;;;1.08;0.80;;;;;;;9.67;100.00;91900.03;6282220;22;20016;-80
2023/10/24 08:34:16;;;;;;;0.95;0.82;;;;;;;9.69;100.00;91894.50;6282550;22;20003;-79
2023/10/24 08:36:42;;;;;;;1.13;0.85;;;;;;;9.70;100.00;91890.81;6281525;22;20043;-79
2023/10/24 08:39:07;;;;;;;5.93;0.80;;;;;;;9.74;100.00;91892.56;6280410;22;20008;-79
2023/10/24 08:41:33;;;;;;;1.10;1.00;;;;;;;9.78;100.00;91893.50;6280165;22;20022;-80
2023/10/24 08:43:59;;;;;;;1.70;1.10;;;;;;;9.80;100.00;91888.75;6284624;22;20015;-80
2023/10/24 08:46:25;;;;;;;1.55;1.00;;;;;;;9.84;100.00;91882.94;6260772;22;20334;-79
2023/10/24 08:48:51;;;;;;;1.25;0.88;;;;;;;9.85;100.00;91879.28;6313895;22;20614;-79
2023/10/24 08:51:17;;;;;;;2.70;1.00;;;;;;;9.87;100.00;91869.28;6314145;22;20019;-80
2023/10/24 08:53:43;;;;;;;1.40;0.75;;;;;;;9.89;100.00;91869.78;6260059;22;20606;-80
2023/10/24 08:56:10;;;;;;;0.95;0.82;;;;;;;9.92;100.00;91856.09;6260451;22;20019;-80
2023/10/24 08:58:38;;;;;;;1.00;0.90;;;;;;;9.95;100.00;91865.94;6313335;22;19995;-80
2023/10/24 09:01:07;;;;;;;4.47;1.50;;;;;;;9.98;100.00;91855.69;6313144;22;20078;-80
2023/10/24 09:03:33;;;;;;;2.05;1.30;;;;;;;10.01;100.00;91859.53;6284794;22;20003;-80
2023/10/24 09:06:01;;;;;;;0.88;0.88;;;;;;;10.01;100.00;91854.31;6313196;22;20060;-79
2023/10/24 09:08:26;;;;;;;1.20;1.10;;;;;;;10.06;100.00;91851.56;6285095;22;20067;-81
2023/10/24 09:10:52;;;;;;;2.17;1.20;;;;;;;10.08;100.00;91857.28;6311770;22;20018;-80
2023/10/24 09:13:18;;;;;;;1.67;1.00;;;;;;;10.11;100.00;91848.06;6312537;22;19999;-81
2023/10/24 09:15:43;;;;;;;1.55;1.20;;;;;;;10.13;100.00;91857.19;6312001;22;20011;-79
2023/10/24 09:18:09;;;;;;;2.13;1.30;;;;;;;10.15;100.00;91849.00;6285292;22;20039;-79
2023/10/24 09:20:39;;;;;;;1.88;1.30;;;;;;;10.18;100.00;91849.22;6259821;22;20038;-80
2023/10/24 09:23:09;;;;;;;1.67;1.20;;;;;;;10.17;100.00;91845.03;6312234;22;20468;-80
2023/10/24 09:25:37;;;;;;;3.53;1.70;;;;;;;10.20;100.00;91843.69;6312247;22;20014;-81
2023/10/24 09:28:17;;;;;;;2.38;1.55;;;;;;;10.25;100.00;91855.88;6311832;22;20026;-81
2023/10/24 09:30:43;;;;;;;4.60;1.60;;;;;;;10.27;100.00;91853.69;6283711;22;20436;-80
2023/10/24 09:33:09;;;;;;;2.58;1.40;;;;;;;10.29;100.00;91838.50;6311202;22;20003;-80
2023/10/24 09:35:38;;;;;;;2.70;1.63;;;;;;;10.31;100.00;91838.97;6311405;22;20018;-79
2023/10/24 09:38:07;;;;;;;2.88;1.70;;;;;;;10.33;100.00;91834.22;6311957;22;20026;-80
2023/10/24 09:40:37;;;;;;;4.65;2.60;;;;;;;10.35;100.00;91821.63;6311874;22;20011;-81
2023/10/24 09:43:16;;;;;;;4.30;2.50;;;;;;;10.36;100.00;91812.72;6311752;22;20018;-80
2023/10/24 09:45:44;;;;;;;4.20;2.10;;;;;;;10.38;100.00;91806.09;6311654;22;20011;-80
2023/10/24 09:48:15;;;;;;;4.72;2.60;;;;;;;10.40;100.00;91800.56;6283947;22;20038;-80
2023/10/24 09:50:42;;;;;;;18.65;10.38;;;;;;;10.47;100.00;91797.50;6284231;22;20007;-80
2023/10/24 09:53:09;;;;;;;13.93;5.97;;;;;;;10.52;100.00;91805.25;6281944;22;20004;-80
2023/10/24 09:55:35;;;;;;;3.42;1.95;;;;;;;10.51;100.00;91799.22;6310193;22;20460;-79
2023/10/24 09:58:04;;;;;;;2.42;1.35;;;;;;;10.54;100.00;91798.63;6307763;22;19999;-82
2023/10/24 10:00:30;;;;;;;2.78;1.30;;;;;;;10.58;100.00;91799.56;6307007;22;20007;-81
2023/10/24 10:02:58;;;;;;;1.77;1.20;;;;;;;10.62;100.00;91789.25;6279057;22;20053;-82
2023/10/24 10:05:28;;;;;;;1.48;1.10;;;;;;;10.66;100.00;91784.19;6304960;22;20007;-80
2023/10/24 10:07:54;;;;;;;2.15;1.20;;;;;;;10.69;100.00;91773.13;6277605;22;20034;-81
2023/10/24 10:10:23;;;;;;;2.70;1.80;;;;;;;10.75;100.00;91771.91;6276221;22;20015;-81
2023/10/24 10:12:52;;;;;;;4.60;2.90;;;;;;;10.80;100.00;91762.06;6275807;22;20015;-82
2023/10/24 10:15:37;;;;;;;5.47;3.10;;;;;;;10.88;100.00;91755.31;6302425;22;20014;-81
2023/10/24 10:18:22;;;;;;;5.88;2.45;;;;;;;10.97;100.00;91748.25;6302021;22;20022;-82
2023/10/24 10:21:10;;;;;;;2.22;1.30;;;;;;;11.04;100.00;91742.56;6302220;22;20015;-83
2023/10/24 10:24:15;;;;;;;1.50;1.20;;;;;;;11.15;100.00;91727.31;6303272;22;20007;-82
2023/10/24 10:26:57;;;;;;;279.33;6.82;;;;;;;11.26;100.00;91723.31;6304415;22;20007;-82
2023/10/24 10:29:47;;;;;;;15.50;2.60;;;;;;;11.34;100.00;91719.91;6305224;22;20304;-82
2023/10/24 10:32:24;;;;;;;7.13;2.22;;;;;;;11.43;100.00;91718.06;6304120;22;20060;-83
2023/10/24 10:34:51;;;;;;;3.60;2.30;;;;;;;11.49;100.00;91731.00;6304774;22;20032;-82
2023/10/24 10:37:17;;;;;;;5.22;1.90;;;;;;;11.54;100.00;91730.84;6305162;22;20055;-82
2023/10/24 10:40:27;;;;;;;2.05;1.27;;;;;;;11.62;100.00;91727.47;6305196;22;20011;-83
2023/10/24 10:42:54;;;;;;;2.83;1.80;;;;;;;11.69;100.00;91701.53;6277572;22;20021;-83
2023/10/24 10:45:27;;;;;;;3.72;2.50;;;;;;;11.80;100.00;91704.59;6305590;22;20105;-82
2023/10/24 10:47:57;;;;;;;2.47;1.60;;;;;;;11.86;100.00;91696.25;6305369;22;20022;-81
2023/10/24 10:50:26;;;;;;;1.45;1.20;;;;;;;11.91;100.00;91699.81;6278934;22;20009;-82
2023/10/24 10:53:01;;;;;;;1.80;1.30;;;;;;;11.96;100.00;91692.56;6304203;22;20011;-83
2023/10/24 10:55:33;;;;;;;3.05;1.83;;;;;;;12.00;100.00;91674.31;6304388;22;20037;-83
2023/10/24 10:58:15;;;;;;;1.85;1.20;;;;;;;12.04;100.00;91683.88;6276786;22;20015;-83
2023/10/24 11:01:03;;;;;;;1.33;1.10;;;;;;;12.03;100.00;91678.97;6278185;22;20007;-83
2023/10/24 11:03:38;;;;;;;4.03;1.88;;;;;;;12.11;100.00;91670.28;6305114;22;20128;-83
2023/10/24 11:06:15;;;;;;;2.90;1.75;;;;;;;12.08;100.00;91666.44;6304859;22;20010;-83
2023/10/24 11:08:43;;;;;;;2.42;1.50;;;;;;;12.09;100.00;91664.56;6305688;22;20008;-83
2023/10/24 11:11:10;;;;;;;2.60;1.67;;;;;;;12.04;100.00;91667.38;6304628;22;20003;-82
2023/10/24 11:13:43;;;;;;;2.65;1.60;;;;;;;12.11;100.00;91657.16;6304616;22;20046;-83
2023/10/24 11:16:14;;;;;;;3.28;1.70;;;;;;;12.17;100.00;91640.16;6305037;22;20011;-83
2023/10/24 11:18:40;;;;;;;4.05;1.30;;;;;;;12.24;100.00;91629.94;6304885;22;20060;-83
2023/10/24 11:21:15;;;;;;;3.35;1.73;;;;;;;12.35;100.00;91619.09;6303840;22;19999;-82
2023/10/24 11:23:42;;;;;;;3.50;2.20;;;;;;;12.41;100.00;91620.44;6277003;22;20042;-83
2023/10/24 11:26:09;;;;;;;3.60;2.03;;;;;;;12.52;100.00;91608.50;6304274;22;20037;-83
2023/10/24 11:28:35;;;;;;;3.20;1.90;;;;;;;12.54;100.00;91616.81;6305270;22;20438;-83